createdAt,value
2018-04-29T00:01:14.951Z,11.20
2018-04-29T00:03:41.520Z,11.20
2018-04-29T00:06:07.744Z,11.10
2018-04-29T00:08:33.981Z,11.30
2018-04-29T00:11:00.219Z,11.10
2018-04-29T00:13:26.450Z,11.40
2018-04-29T00:15:53.452Z,11.50
2018-04-29T00:18:21.077Z,11.20
2018-04-29T00:20:47.441Z,11.20
2018-04-29T00:23:13.748Z,11.10
2018-04-29T00:25:40.011Z,11.00
2018-04-29T00:28:06.279Z,10.90
2018-04-29T00:30:32.623Z,11.00
2018-04-29T00:33:20.520Z,11.00
2018-04-29T00:35:47.029Z,11.00
2018-04-29T00:38:14.269Z,10.90
2018-04-29T00:40:40.692Z,10.90
2018-04-29T00:43:07.874Z,10.80
2018-04-29T00:45:35.023Z,10.80
2018-04-29T00:48:02.250Z,10.80
2018-04-29T00:50:28.697Z,10.80
2018-04-29T00:52:55.123Z,10.70
2018-04-29T00:55:21.985Z,10.70
2018-04-29T00:57:48.352Z,10.80
2018-04-29T01:00:15.611Z,11.00
2018-04-29T01:02:42.595Z,11.00
2018-04-29T01:05:09.175Z,11.00
2018-04-29T01:07:35.662Z,11.00
2018-04-29T01:10:02.184Z,10.90
2018-04-29T01:12:28.555Z,11.00
2018-04-29T01:14:54.977Z,10.90
2018-04-29T01:17:21.461Z,11.10
2018-04-29T01:19:48.667Z,10.90
2018-04-29T01:22:15.312Z,10.90
2018-04-29T01:24:42.965Z,10.90
2018-04-29T01:27:09.412Z,10.80
2018-04-29T01:29:35.962Z,10.70
2018-04-29T01:32:02.800Z,10.90
2018-04-29T01:34:29.245Z,10.90
2018-04-29T01:36:55.682Z,10.70
2018-04-29T01:39:22.543Z,10.90
2018-04-29T01:41:49.963Z,10.90
2018-04-29T01:44:16.390Z,10.90
2018-04-29T01:46:43.011Z,11.10
2018-04-29T01:49:09.629Z,11.10
2018-04-29T01:51:36.105Z,11.10
2018-04-29T01:54:02.769Z,11.20
2018-04-29T01:56:29.181Z,11.00
2018-04-29T01:58:56.493Z,11.10
2018-04-29T02:01:24.249Z,11.10
2018-04-29T02:03:51.050Z,11.10
2018-04-29T02:06:17.463Z,11.10
2018-04-29T02:08:44.615Z,11.10
2018-04-29T02:11:10.975Z,11.10
2018-04-29T02:13:37.464Z,11.00
2018-04-29T02:16:04.743Z,11.10
2018-04-29T02:18:31.138Z,11.10
2018-04-29T02:20:58.700Z,11.10
2018-04-29T02:23:25.245Z,10.60
2018-04-29T02:25:51.729Z,11.00
2018-04-29T02:28:18.093Z,11.00
2018-04-29T02:30:51.385Z,11.10
2018-04-29T02:33:18.971Z,11.20
2018-04-29T02:35:45.716Z,11.20
2018-04-29T02:38:12.160Z,11.20
2018-04-29T02:40:38.731Z,11.20
2018-04-29T02:43:06.950Z,11.20
2018-04-29T02:45:34.176Z,11.30
2018-04-29T02:48:00.872Z,11.40
2018-04-29T02:50:27.332Z,11.50
2018-04-29T02:52:53.758Z,11.30
2018-04-29T02:55:20.094Z,11.20
2018-04-29T02:57:46.834Z,11.30
2018-04-29T03:00:13.947Z,11.40
2018-04-29T03:02:40.446Z,11.30
2018-04-29T03:05:08.308Z,11.30
2018-04-29T03:07:34.928Z,11.30
2018-04-29T03:10:01.353Z,11.20
2018-04-29T03:12:27.797Z,11.40
2018-04-29T03:14:54.208Z,11.40
2018-04-29T03:17:21.390Z,11.20
2018-04-29T03:19:47.811Z,11.30
2018-04-29T03:22:14.225Z,11.10
2018-04-29T03:24:40.662Z,11.00
2018-04-29T03:29:36.668Z,11.00
2018-04-29T03:34:31.918Z,10.80
2018-04-29T03:36:58.360Z,11.00
2018-04-29T03:39:24.751Z,10.50
2018-04-29T03:41:51.192Z,10.40
2018-04-29T03:44:17.675Z,10.20
2018-04-29T03:46:44.187Z,10.20
2018-04-29T03:49:10.639Z,10.60
2018-04-29T03:51:43.063Z,10.40
2018-04-29T03:54:09.505Z,10.30
2018-04-29T03:56:35.877Z,10.30
2018-04-29T03:59:14.498Z,10.20
2018-04-29T04:01:53.471Z,10.20
2018-04-29T04:04:20.307Z,10.10
2018-04-29T04:06:47.872Z,10.00
2018-04-29T04:09:14.396Z,9.90
2018-04-29T04:11:40.888Z,10.00
2018-04-29T04:14:08.106Z,10.00
2018-04-29T04:16:34.617Z,10.00
2018-04-29T04:19:01.169Z,10.00
2018-04-29T04:21:27.683Z,10.20
2018-04-29T04:23:54.309Z,10.10
2018-04-29T04:26:20.857Z,10.30
2018-04-29T04:28:47.297Z,10.40
2018-04-29T04:31:14.137Z,10.20
2018-04-29T04:33:40.771Z,10.20
2018-04-29T04:36:07.178Z,10.30
2018-04-29T04:38:33.666Z,10.20
2018-04-29T04:41:00.449Z,10.40
2018-04-29T04:43:29.326Z,10.10
2018-04-29T04:45:55.717Z,10.00
2018-04-29T04:48:23.025Z,9.80
2018-04-29T04:50:49.482Z,9.80
2018-04-29T04:53:15.896Z,9.70
2018-04-29T04:55:42.372Z,9.60
2018-04-29T04:58:08.890Z,9.70
2018-04-29T05:03:08.965Z,9.90
2018-04-29T05:05:36.295Z,10.00
2018-04-29T05:08:09.679Z,10.00
2018-04-29T05:10:36.141Z,10.30
2018-04-29T05:13:02.721Z,10.90
2018-04-29T05:15:29.327Z,10.60
2018-04-29T05:17:56.513Z,10.60
2018-04-29T05:20:24.140Z,10.70
2018-04-29T05:22:50.600Z,10.60
2018-04-29T05:27:45.312Z,10.80
2018-04-29T05:30:11.757Z,10.70
2018-04-29T05:32:38.149Z,13.70
2018-04-29T05:35:05.300Z,10.90
2018-04-29T05:37:31.809Z,11.00
2018-04-29T05:39:59.356Z,11.00
2018-04-29T05:42:25.755Z,11.10
2018-04-29T05:44:53.070Z,11.20
2018-04-29T05:47:19.517Z,11.50
2018-04-29T05:49:46.026Z,11.50
2018-04-29T05:52:13.742Z,11.60
2018-04-29T05:54:40.347Z,11.80
2018-04-29T05:57:06.815Z,11.80
2018-04-29T05:59:33.746Z,12.10
2018-04-29T06:02:00.941Z,12.20
2018-04-29T06:04:27.412Z,12.20
2018-04-29T06:06:54.156Z,12.20
2018-04-29T06:09:20.579Z,12.20
2018-04-29T06:11:46.969Z,12.30
2018-04-29T06:14:14.242Z,12.30
2018-04-29T06:16:40.673Z,12.30
2018-04-29T06:19:07.840Z,12.40
2018-04-29T06:21:35.223Z,12.40
2018-04-29T06:24:03.450Z,12.50
2018-04-29T06:26:29.897Z,12.60
2018-04-29T06:28:58.066Z,12.60
2018-04-29T06:31:24.589Z,12.90
2018-04-29T06:33:51.401Z,12.60
2018-04-29T06:36:17.989Z,12.70
2018-04-29T06:38:45.335Z,12.60
2018-04-29T06:41:11.839Z,12.70
2018-04-29T06:46:06.544Z,12.70
2018-04-29T06:48:33.013Z,12.70
2018-04-29T06:50:59.372Z,12.80
2018-04-29T06:53:26.015Z,12.60
2018-04-29T06:55:52.433Z,12.70
2018-04-29T07:00:47.985Z,12.80
2018-04-29T07:03:14.374Z,12.80
2018-04-29T07:08:09.088Z,13.20
2018-04-29T07:10:35.436Z,13.30
2018-04-29T07:13:01.915Z,13.50
2018-04-29T07:15:28.435Z,13.50
2018-04-29T07:20:24.806Z,13.60
2018-04-29T07:22:54.036Z,13.80
2018-04-29T07:25:22.414Z,14.00
2018-04-29T07:32:48.524Z,14.00
2018-04-29T07:37:43.006Z,14.20
2018-04-29T07:42:38.165Z,14.50
2018-04-29T07:45:06.025Z,14.50
2018-04-29T07:47:32.487Z,14.50
2018-04-29T07:49:59.058Z,14.70
2018-04-29T07:52:25.617Z,14.90
2018-04-29T07:54:52.852Z,15.10
2018-04-29T07:57:20.413Z,15.20
2018-04-29T07:59:47.773Z,15.30
2018-04-29T08:02:15.369Z,15.30
2018-04-29T08:04:42.294Z,15.40
2018-04-29T08:07:08.809Z,15.80
2018-04-29T08:09:36.567Z,15.80
2018-04-29T08:12:03.606Z,15.60
2018-04-29T08:16:58.266Z,17.10
2018-04-29T08:19:25.183Z,18.50
2018-04-29T08:21:53.005Z,19.60
2018-04-29T08:24:20.166Z,20.10
2018-04-29T08:26:48.121Z,20.80
2018-04-29T08:29:14.900Z,21.60
2018-04-29T08:31:41.394Z,21.90
2018-04-29T08:34:08.221Z,22.20
2018-04-29T08:36:34.634Z,22.50
2018-04-29T08:41:31.413Z,23.20
2018-04-29T08:43:59.329Z,22.40
2018-04-29T08:46:28.238Z,22.20
2018-04-29T08:48:55.204Z,22.30
2018-04-29T08:51:22.494Z,22.50
2018-04-29T08:53:49.816Z,22.60
2018-04-29T08:56:16.997Z,23.00
2018-04-29T08:58:43.457Z,22.90
2018-04-29T09:06:06.753Z,22.60
2018-04-29T09:11:01.451Z,21.90
2018-04-29T09:13:27.948Z,22.20
2018-04-29T09:15:54.467Z,22.40
2018-04-29T09:18:21.241Z,22.70
2018-04-29T09:31:14.406Z,23.00
2018-04-29T09:33:40.910Z,23.60
2018-04-29T09:36:07.559Z,23.60
2018-04-29T09:38:35.197Z,24.00
2018-04-29T09:41:15.123Z,23.40
2018-04-29T09:43:55.302Z,23.50
2018-04-29T09:46:37.825Z,23.30
2018-04-29T09:49:14.793Z,23.50
2018-04-29T09:51:42.050Z,23.00
2018-04-29T09:54:09.298Z,23.30
2018-04-29T09:56:36.838Z,23.60
2018-04-29T09:59:05.241Z,23.60
2018-04-29T10:01:35.062Z,24.00
2018-04-29T10:04:03.420Z,23.20
2018-04-29T10:06:30.622Z,22.80
2018-04-29T10:08:56.990Z,22.40
2018-04-29T10:11:23.452Z,23.20
2018-04-29T10:13:49.924Z,23.00
2018-04-29T10:16:16.363Z,22.60
2018-04-29T10:18:43.684Z,22.50
2018-04-29T10:21:10.014Z,22.20
2018-04-29T10:23:37.172Z,21.70
2018-04-29T10:26:04.358Z,22.40
2018-04-29T10:28:30.815Z,22.60
2018-04-29T10:30:57.336Z,22.40
2018-04-29T10:33:23.762Z,22.20
2018-04-29T10:35:51.044Z,21.30
2018-04-29T10:38:18.233Z,21.70
2018-04-29T10:40:45.950Z,21.50
2018-04-29T10:43:16.791Z,21.70
2018-04-29T10:45:51.844Z,21.50
2018-04-29T10:54:21.892Z,21.50
2018-04-29T11:02:04.160Z,22.20
2018-04-29T11:04:30.606Z,22.80
2018-04-29T11:06:57.063Z,22.50
2018-04-29T11:09:23.767Z,21.90
2018-04-29T11:11:50.393Z,22.40
2018-04-29T11:16:45.019Z,23.00
2018-04-29T11:19:11.975Z,23.70
2018-04-29T11:21:38.561Z,23.30
2018-04-29T11:24:05.099Z,23.80
2018-04-29T11:26:31.890Z,23.60
2018-04-29T11:28:58.392Z,23.50
2018-04-29T11:31:25.449Z,23.80
2018-04-29T11:33:52.743Z,23.80
2018-04-29T11:36:19.140Z,23.70
2018-04-29T11:38:45.800Z,23.60
2018-04-29T11:41:12.238Z,23.80
2018-04-29T11:43:39.162Z,22.70
2018-04-29T11:46:05.556Z,22.50
2018-04-29T11:48:33.467Z,22.00
2018-04-29T11:51:00.801Z,21.20
2018-04-29T11:53:28.868Z,21.50
2018-04-29T11:55:55.346Z,21.50
2018-04-29T11:58:22.596Z,21.20
2018-04-29T12:00:49.112Z,21.20
2018-04-29T12:03:16.134Z,21.40
2018-04-29T12:05:45.571Z,21.50
2018-04-29T12:08:13.182Z,21.30
2018-04-29T12:10:39.576Z,21.40
2018-04-29T12:13:06.329Z,21.40
2018-04-29T12:15:32.785Z,21.10
2018-04-29T12:17:59.251Z,20.10
2018-04-29T12:20:25.990Z,19.70
2018-04-29T12:22:52.953Z,20.30
2018-04-29T12:27:47.571Z,19.70
2018-04-29T12:30:14.042Z,19.70
2018-04-29T12:32:41.579Z,20.50
2018-04-29T12:35:08.982Z,20.60
2018-04-29T12:37:36.162Z,20.20
2018-04-29T12:40:02.729Z,19.90
2018-04-29T12:42:29.150Z,20.30
2018-04-29T12:44:56.343Z,19.50
2018-04-29T12:47:23.901Z,19.00
2018-04-29T12:49:51.499Z,18.80
2018-04-29T12:52:17.997Z,18.90
2018-04-29T12:57:13.485Z,19.70
2018-04-29T12:59:40.419Z,19.70
2018-04-29T13:02:06.855Z,20.00
2018-04-29T13:04:33.185Z,20.50
2018-04-29T13:06:59.998Z,20.80
2018-04-29T13:09:27.464Z,21.00
2018-04-29T13:11:54.648Z,20.90
2018-04-29T13:14:21.571Z,21.50
2018-04-29T13:16:48.110Z,21.20
2018-04-29T13:21:44.332Z,22.00
2018-04-29T13:24:10.869Z,22.60
2018-04-29T13:26:38.197Z,22.60
2018-04-29T13:31:33.417Z,22.00
2018-04-29T13:34:00.037Z,21.90
2018-04-29T13:36:27.225Z,21.70
2018-04-29T13:38:54.400Z,21.60
2018-04-29T13:41:21.577Z,21.70
2018-04-29T13:43:48.764Z,22.50
2018-04-29T13:46:15.190Z,22.80
2018-04-29T13:48:42.367Z,22.40
2018-04-29T13:51:09.518Z,22.30
2018-04-29T13:53:36.083Z,22.20
2018-04-29T13:56:02.600Z,23.50
2018-04-29T13:58:29.046Z,24.30
2018-04-29T14:00:55.494Z,25.20
2018-04-29T14:03:22.655Z,25.70
2018-04-29T14:05:51.243Z,25.70
2018-04-29T14:08:17.755Z,25.50
2018-04-29T14:10:45.310Z,25.70
2018-04-29T14:13:12.128Z,26.50
2018-04-29T14:15:39.360Z,27.10
2018-04-29T14:18:05.889Z,27.30
2018-04-29T14:20:35.061Z,27.20
2018-04-29T14:23:01.484Z,26.80
2018-04-29T14:25:27.911Z,26.80
2018-04-29T14:27:54.364Z,26.00
2018-04-29T14:30:21.179Z,25.70
2018-04-29T14:32:48.791Z,25.40
2018-04-29T14:35:16.699Z,25.00
2018-04-29T14:37:43.983Z,25.00
2018-04-29T14:40:10.400Z,25.10
2018-04-29T14:42:38.463Z,24.50
2018-04-29T14:45:06.674Z,24.30
2018-04-29T14:47:34.532Z,23.80
2018-04-29T14:50:05.266Z,23.20
2018-04-29T14:52:32.822Z,23.00
2018-04-29T14:54:59.194Z,23.20
2018-04-29T14:57:25.622Z,23.70
2018-04-29T14:59:53.217Z,24.40
2018-04-29T15:02:19.780Z,24.80
2018-04-29T15:04:46.902Z,24.80
2018-04-29T15:07:13.461Z,24.40
2018-04-29T15:09:39.841Z,24.50
2018-04-29T15:12:06.372Z,24.60
2018-04-29T15:14:32.909Z,24.20
2018-04-29T15:16:59.840Z,24.10
2018-04-29T15:19:33.313Z,24.40
2018-04-29T15:21:59.745Z,24.30
2018-04-29T15:24:26.657Z,23.90
2018-04-29T15:26:53.193Z,23.30
2018-04-29T15:31:48.576Z,23.40
2018-04-29T15:34:15.101Z,23.40
2018-04-29T15:36:41.507Z,23.30
2018-04-29T15:39:07.947Z,23.30
2018-04-29T15:41:34.574Z,23.50
2018-04-29T15:44:01.441Z,23.30
2018-04-29T15:46:28.233Z,23.30
2018-04-29T15:48:54.899Z,22.90
2018-04-29T15:51:22.483Z,23.20
2018-04-29T15:53:49.006Z,23.60
2018-04-29T15:56:15.552Z,23.60
2018-04-29T15:58:41.957Z,23.10
2018-04-29T16:01:09.158Z,22.80
2018-04-29T16:03:35.663Z,22.90
2018-04-29T16:06:02.096Z,22.70
2018-04-29T16:08:29.297Z,22.20
2018-04-29T16:10:55.869Z,22.30
2018-04-29T16:13:22.363Z,22.10
2018-04-29T16:15:48.926Z,22.30
2018-04-29T16:18:15.694Z,22.10
2018-04-29T16:20:42.128Z,22.30
2018-04-29T16:23:09.661Z,22.40
2018-04-29T16:25:36.916Z,22.50
2018-04-29T16:28:04.889Z,22.20
2018-04-29T16:30:32.788Z,21.80
2018-04-29T16:32:59.246Z,21.70
2018-04-29T16:35:25.694Z,21.70
2018-04-29T16:37:52.169Z,21.60
2018-04-29T16:40:19.401Z,21.70
2018-04-29T16:42:45.807Z,21.50
2018-04-29T16:45:13.433Z,21.40
2018-04-29T16:47:40.004Z,21.00
2018-04-29T16:50:06.506Z,20.90
2018-04-29T16:52:33.849Z,20.60
2018-04-29T16:55:01.483Z,20.30
2018-04-29T16:57:28.017Z,20.40
2018-04-29T16:59:55.363Z,20.50
2018-04-29T17:02:21.945Z,20.60
2018-04-29T17:04:48.439Z,20.60
2018-04-29T17:07:16.382Z,20.60
2018-04-29T17:09:42.868Z,20.50
2018-04-29T17:12:09.382Z,20.40
2018-04-29T17:14:35.812Z,20.30
2018-04-29T17:17:02.392Z,20.00
2018-04-29T17:19:28.850Z,20.00
2018-04-29T17:21:55.269Z,19.90
2018-04-29T17:24:22.728Z,20.00
2018-04-29T17:26:49.167Z,19.90
2018-04-29T17:29:16.795Z,19.70
2018-04-29T17:31:44.360Z,19.50
2018-04-29T17:34:11.204Z,19.20
2018-04-29T17:39:05.908Z,19.10
2018-04-29T17:41:32.504Z,19.00
2018-04-29T17:44:00.552Z,18.60
2018-04-29T17:46:26.996Z,18.40
2018-04-29T17:48:53.404Z,17.80
2018-04-29T17:51:20.240Z,17.70
2018-04-29T17:53:46.676Z,17.30
2018-04-29T17:56:13.202Z,17.10
2018-04-29T17:58:39.823Z,16.60
2018-04-29T18:01:06.691Z,16.50
2018-04-29T18:03:33.135Z,16.30
2018-04-29T18:05:59.559Z,16.20
2018-04-29T18:08:26.100Z,15.60
2018-04-29T18:10:53.085Z,15.60
2018-04-29T18:15:47.785Z,15.40
2018-04-29T18:18:14.216Z,15.30
2018-04-29T18:20:41.646Z,15.20
2018-04-29T18:23:08.166Z,15.00
2018-04-29T18:25:34.606Z,15.10
2018-04-29T18:28:01.121Z,14.80
2018-04-29T18:30:27.682Z,14.70
2018-04-29T18:32:54.156Z,14.60
2018-04-29T18:35:22.348Z,14.60
2018-04-29T18:37:49.335Z,14.50
2018-04-29T18:42:45.925Z,14.40
2018-04-29T18:45:13.197Z,14.40
2018-04-29T18:47:39.732Z,14.40
2018-04-29T18:50:06.412Z,14.40
2018-04-29T18:52:33.640Z,14.30
2018-04-29T18:55:01.153Z,14.20
2018-04-29T18:57:29.097Z,14.20
2018-04-29T18:59:55.640Z,14.10
2018-04-29T19:02:22.133Z,13.90
2018-04-29T19:04:49.365Z,13.80
2018-04-29T19:07:15.997Z,13.90
2018-04-29T19:09:43.343Z,13.70
2018-04-29T19:12:09.795Z,13.70
2018-04-29T19:14:36.354Z,13.60
2018-04-29T19:17:03.157Z,13.60
2018-04-29T19:19:29.901Z,13.70
2018-04-29T19:21:56.370Z,13.40
2018-04-29T19:24:24.348Z,13.30
2018-04-29T19:26:51.040Z,13.20
2018-04-29T19:29:17.530Z,13.30
2018-04-29T19:31:44.885Z,13.10
2018-04-29T19:34:11.577Z,13.10
2018-04-29T19:36:38.522Z,13.40
2018-04-29T19:39:05.157Z,13.00
2018-04-29T19:41:32.532Z,12.90
2018-04-29T19:43:59.338Z,12.90
2018-04-29T19:46:25.848Z,12.80
2018-04-29T19:48:53.418Z,12.80
2018-04-29T19:51:20.090Z,12.70
2018-04-29T19:53:47.502Z,12.80
2018-04-29T19:56:14.376Z,12.70
2018-04-29T19:58:41.490Z,13.00
2018-04-29T20:01:08.301Z,12.80
2018-04-29T20:03:34.925Z,12.80
2018-04-29T20:06:03.119Z,12.50
2018-04-29T20:08:32.179Z,12.70
2018-04-29T20:10:59.646Z,12.80
2018-04-29T20:13:26.893Z,12.70
2018-04-29T20:15:53.900Z,12.70
2018-04-29T20:18:21.087Z,12.50
2018-04-29T20:20:48.567Z,12.70
2018-04-29T20:23:16.418Z,13.20
2018-04-29T20:25:43.980Z,12.80
2018-04-29T20:28:10.860Z,12.80
2018-04-29T20:30:38.219Z,12.80
2018-04-29T20:33:05.058Z,12.80
2018-04-29T20:35:32.461Z,12.80
2018-04-29T20:38:00.151Z,12.80
2018-04-29T20:40:27.834Z,12.70
2018-04-29T20:42:55.218Z,12.50
2018-04-29T20:45:21.930Z,12.90
2018-04-29T20:47:48.381Z,12.40
2018-04-29T20:50:16.192Z,12.50
2018-04-29T20:52:43.529Z,12.40
2018-04-29T20:55:10.136Z,12.40
2018-04-29T20:57:36.812Z,12.40
2018-04-29T21:00:03.575Z,12.20
2018-04-29T21:02:30.137Z,12.10
2018-04-29T21:04:56.741Z,12.30
2018-04-29T21:07:23.280Z,12.20
2018-04-29T21:09:49.796Z,12.10
2018-04-29T21:12:16.237Z,11.80
2018-04-29T21:14:43.701Z,11.90
2018-04-29T21:17:11.358Z,11.90
2018-04-29T21:19:37.977Z,11.80
2018-04-29T21:22:04.589Z,11.70
2018-04-29T21:24:31.242Z,11.70
2018-04-29T21:26:57.713Z,11.70
2018-04-29T21:29:24.122Z,11.60
2018-04-29T21:31:50.614Z,11.50
2018-04-29T21:34:18.638Z,11.50
2018-04-29T21:36:45.091Z,11.60
2018-04-29T21:39:12.272Z,11.50
2018-04-29T21:41:39.509Z,11.50
2018-04-29T21:44:06.726Z,11.40
2018-04-29T21:46:33.227Z,11.40
2018-04-29T21:49:00.425Z,11.30
2018-04-29T21:51:27.648Z,11.30
2018-04-29T21:53:54.133Z,11.20
2018-04-29T21:56:20.720Z,11.20
2018-04-29T21:58:47.553Z,11.20
2018-04-29T22:01:14.010Z,11.20
2018-04-29T22:03:40.487Z,11.10
2018-04-29T22:06:06.949Z,11.10
2018-04-29T22:08:34.286Z,11.10
2018-04-29T22:11:00.841Z,11.10
2018-04-29T22:13:27.410Z,11.10
2018-04-29T22:15:54.753Z,11.10
2018-04-29T22:18:22.561Z,11.20
2018-04-29T22:20:49.043Z,10.90
2018-04-29T22:23:15.477Z,11.00
2018-04-29T22:25:43.091Z,11.10
2018-04-29T22:28:09.524Z,11.10
2018-04-29T22:30:35.984Z,11.10
2018-04-29T22:33:02.455Z,11.00
2018-04-29T22:35:28.975Z,11.10
2018-04-29T22:37:55.799Z,11.10
2018-04-29T22:40:22.593Z,10.90
2018-04-29T22:42:49.048Z,11.00
2018-04-29T22:45:15.497Z,10.90
2018-04-29T22:47:41.999Z,10.90
2018-04-29T22:50:08.446Z,11.00
2018-04-29T22:52:34.913Z,10.90
2018-04-29T22:55:01.432Z,10.90
2018-04-29T22:57:28.689Z,10.90
2018-04-29T22:59:55.829Z,10.90
2018-04-29T23:02:22.328Z,10.90
2018-04-29T23:04:48.851Z,10.90
2018-04-29T23:07:15.647Z,10.80
2018-04-29T23:09:42.353Z,10.80
2018-04-29T23:12:08.854Z,10.70
2018-04-29T23:14:35.465Z,10.80
2018-04-29T23:17:02.161Z,10.80
2018-04-29T23:19:28.649Z,10.90
2018-04-29T23:21:55.446Z,10.90
2018-04-29T23:24:22.898Z,10.80
2018-04-29T23:26:49.811Z,10.80
2018-04-29T23:29:16.429Z,10.90
2018-04-29T23:31:43.245Z,11.00
2018-04-29T23:34:09.761Z,11.00
2018-04-29T23:36:36.127Z,11.10
2018-04-29T23:39:02.615Z,11.00
2018-04-29T23:41:29.018Z,11.10
2018-04-29T23:43:55.429Z,11.10
2018-04-29T23:46:21.869Z,11.10
2018-04-29T23:48:48.271Z,11.10
2018-04-29T23:51:14.725Z,11.20
2018-04-29T23:53:41.407Z,11.40
2018-04-29T23:56:07.898Z,11.30
2018-04-29T23:58:35.123Z,11.40
